createdAt,value
2022-11-30T00:00:01.528Z,95688.00
2022-11-30T00:04:04.378Z,95689.00
2022-11-30T00:08:07.145Z,95688.00
2022-11-30T00:12:09.880Z,95672.00
2022-11-30T00:16:14.031Z,95682.00
2022-11-30T00:20:17.330Z,95681.00
2022-11-30T00:24:20.015Z,95680.00
2022-11-30T00:28:22.694Z,95681.00
2022-11-30T00:32:27.398Z,95676.00
2022-11-30T00:36:30.114Z,95676.00
2022-11-30T00:40:32.781Z,95691.00
2022-11-30T00:44:35.489Z,95693.00
2022-11-30T00:48:40.447Z,95678.00
2022-11-30T00:52:43.164Z,95701.00
2022-11-30T00:56:45.892Z,95694.00
2022-11-30T01:00:48.807Z,95692.00
2022-11-30T01:04:52.799Z,95700.00
2022-11-30T01:08:55.492Z,95697.00
2022-11-30T01:12:58.157Z,95696.00
2022-11-30T01:17:00.913Z,95702.00
2022-11-30T01:21:08.467Z,95699.00
2022-11-30T01:25:11.483Z,95709.00
2022-11-30T01:29:14.138Z,95691.00
2022-11-30T01:33:16.754Z,95699.00
2022-11-30T01:37:20.798Z,95691.00
2022-11-30T01:41:26.369Z,95701.00
2022-11-30T01:45:29.369Z,95697.00
2022-11-30T01:49:37.077Z,95696.00
2022-11-30T01:53:41.304Z,95709.00
2022-11-30T01:57:48.662Z,95709.00
2022-11-30T02:01:53.494Z,95701.00
2022-11-30T02:05:56.429Z,95704.00
2022-11-30T02:10:00.577Z,95701.00
2022-11-30T02:14:16.305Z,95699.00
2022-11-30T02:18:25.427Z,95698.00
2022-11-30T02:22:44.257Z,95699.00
2022-11-30T02:27:06.022Z,95706.00
2022-11-30T02:31:16.179Z,95700.00
2022-11-30T02:35:23.030Z,95708.00
2022-11-30T02:39:25.776Z,95704.00
2022-11-30T02:43:31.762Z,95715.00
2022-11-30T02:47:42.051Z,95717.00
2022-11-30T02:51:45.858Z,95718.00
2022-11-30T02:55:48.598Z,95720.00
2022-11-30T02:59:51.404Z,95707.00
2022-11-30T03:03:55.476Z,95718.00
2022-11-30T03:07:58.263Z,95709.00
2022-11-30T03:12:01.074Z,95710.00
2022-11-30T03:16:08.010Z,95717.00
2022-11-30T03:20:12.479Z,95715.00
2022-11-30T03:24:15.184Z,95725.00
2022-11-30T03:28:17.992Z,95730.00
2022-11-30T03:32:20.718Z,95722.00
2022-11-30T03:36:24.873Z,95730.00
2022-11-30T03:40:27.564Z,95731.00
2022-11-30T03:44:30.825Z,95740.00
2022-11-30T03:48:35.920Z,95735.00
2022-11-30T03:52:40.003Z,95725.00
2022-11-30T03:56:42.721Z,95722.00
2022-11-30T04:00:45.465Z,95725.00
2022-11-30T04:04:48.410Z,95727.00
2022-11-30T04:08:52.752Z,95731.00
2022-11-30T04:12:55.511Z,95736.00
2022-11-30T04:16:58.239Z,95731.00
2022-11-30T04:21:02.032Z,95729.00
2022-11-30T04:25:07.226Z,95738.00
2022-11-30T04:29:10.042Z,95739.00
2022-11-30T04:33:13.984Z,95733.00
2022-11-30T04:37:16.717Z,95735.00
2022-11-30T04:41:20.788Z,95741.00
2022-11-30T04:45:23.542Z,95726.00
2022-11-30T04:49:26.281Z,95744.00
2022-11-30T04:53:29.062Z,95736.00
2022-11-30T04:57:33.310Z,95747.00
2022-11-30T05:01:36.204Z,95744.00
2022-11-30T05:05:39.102Z,95737.00
2022-11-30T05:09:41.843Z,95736.00
2022-11-30T05:13:45.933Z,95741.00
2022-11-30T05:17:48.697Z,95748.00
2022-11-30T05:21:51.474Z,95747.00
2022-11-30T05:25:54.164Z,95750.00
2022-11-30T05:29:58.209Z,95750.00
2022-11-30T05:34:01.021Z,95750.00
2022-11-30T05:38:03.863Z,95761.00
2022-11-30T05:42:06.645Z,95750.00
2022-11-30T05:46:11.478Z,95754.00
2022-11-30T05:50:15.122Z,95756.00
2022-11-30T05:54:18.054Z,95759.00
2022-11-30T05:58:20.751Z,95765.00
2022-11-30T06:02:28.148Z,95767.00
2022-11-30T06:06:31.309Z,95767.00
2022-11-30T06:10:34.010Z,95775.00
2022-11-30T06:14:36.805Z,95773.00
2022-11-30T06:18:40.898Z,95766.00
2022-11-30T06:22:46.283Z,95765.00
2022-11-30T06:26:49.065Z,95770.00
2022-11-30T06:30:51.954Z,95769.00
2022-11-30T06:34:56.011Z,95761.00
2022-11-30T06:38:58.890Z,95763.00
2022-11-30T06:43:01.676Z,95760.00
2022-11-30T06:47:04.469Z,95771.00
2022-11-30T06:51:09.889Z,95766.00
2022-11-30T06:55:12.626Z,95775.00
2022-11-30T06:59:15.346Z,95775.00
2022-11-30T07:03:18.056Z,95778.00
2022-11-30T07:07:22.322Z,95770.00
2022-11-30T07:11:25.069Z,95775.00
2022-11-30T07:15:27.788Z,95783.00
2022-11-30T07:19:30.749Z,95777.00
2022-11-30T07:23:56.422Z,95782.00
2022-11-30T07:27:59.764Z,95787.00
2022-11-30T07:32:02.550Z,95796.00
2022-11-30T07:36:05.498Z,95793.00
2022-11-30T07:40:10.590Z,95797.00
2022-11-30T07:44:13.437Z,95783.00
2022-11-30T07:48:16.184Z,95790.00
2022-11-30T07:52:18.950Z,95795.00
2022-11-30T07:56:23.571Z,95803.00
2022-11-30T08:00:26.454Z,95797.00
2022-11-30T08:04:29.243Z,95786.00
2022-11-30T08:08:33.792Z,95780.00
2022-11-30T08:12:37.881Z,95785.00
2022-11-30T08:16:40.706Z,95790.00
2022-11-30T08:20:49.703Z,95791.00
2022-11-30T08:24:52.780Z,95790.00
2022-11-30T08:28:57.785Z,95795.00
2022-11-30T08:33:01.748Z,95793.00
2022-11-30T08:37:04.930Z,95791.00
2022-11-30T08:41:08.780Z,95792.00
2022-11-30T08:45:13.127Z,95798.00
2022-11-30T08:49:22.185Z,95811.00
2022-11-30T08:53:26.230Z,95803.00
2022-11-30T08:57:28.954Z,95808.00
2022-11-30T09:01:33.400Z,95805.00
2022-11-30T09:05:36.260Z,95812.00
2022-11-30T09:09:39.115Z,95814.00
2022-11-30T09:13:43.201Z,95812.00
2022-11-30T09:17:47.261Z,95822.00
2022-11-30T09:21:52.253Z,95827.00
2022-11-30T09:25:56.839Z,95833.00
2022-11-30T09:29:59.629Z,95830.00
2022-11-30T09:34:03.721Z,95828.00
2022-11-30T09:38:06.542Z,95815.00
2022-11-30T09:42:22.833Z,95826.00
2022-11-30T09:46:31.454Z,95818.00
2022-11-30T09:50:40.462Z,95819.00
2022-11-30T09:54:45.373Z,95821.00
2022-11-30T09:58:51.246Z,95820.00
2022-11-30T10:02:58.264Z,95823.00
2022-11-30T10:07:14.313Z,95830.00
2022-11-30T10:11:42.480Z,95823.00
2022-11-30T10:15:57.536Z,95810.00
2022-11-30T10:20:15.747Z,95812.00
2022-11-30T10:24:32.869Z,95821.00
2022-11-30T10:28:49.552Z,95818.00
2022-11-30T10:32:53.665Z,95818.00
2022-11-30T10:37:02.309Z,95820.00
2022-11-30T10:41:14.196Z,95817.00
2022-11-30T10:45:21.197Z,95820.00
2022-11-30T10:49:25.062Z,95814.00
2022-11-30T10:53:27.799Z,95815.00
2022-11-30T10:57:33.453Z,95808.00
2022-11-30T11:01:39.239Z,95808.00
2022-11-30T11:05:42.070Z,95808.00
2022-11-30T11:09:47.517Z,95800.00
2022-11-30T11:13:51.747Z,95800.00
2022-11-30T11:18:12.776Z,95798.00
2022-11-30T11:22:18.869Z,95803.00
2022-11-30T11:26:24.486Z,95798.00
2022-11-30T11:30:33.461Z,95799.00
2022-11-30T11:34:38.323Z,95797.00
2022-11-30T11:38:42.811Z,95803.00
2022-11-30T11:42:48.977Z,95786.00
2022-11-30T11:46:57.245Z,95799.00
2022-11-30T11:51:09.037Z,95795.00
2022-11-30T11:55:17.937Z,95796.00
2022-11-30T11:59:36.879Z,95792.00
2022-11-30T12:03:55.840Z,95795.00
2022-11-30T12:08:07.784Z,95796.00
2022-11-30T12:12:13.866Z,95794.00
2022-11-30T12:16:32.153Z,95788.00
2022-11-30T12:20:47.234Z,95788.00
2022-11-30T12:25:19.297Z,95784.00
2022-11-30T12:29:25.151Z,95777.00
2022-11-30T12:33:38.580Z,95787.00
2022-11-30T12:37:50.997Z,95797.00
2022-11-30T12:41:59.521Z,95796.00
2022-11-30T12:46:13.241Z,95790.00
2022-11-30T12:50:45.370Z,95795.00
2022-11-30T12:54:55.249Z,95791.00
2022-11-30T12:59:09.096Z,95789.00
2022-11-30T13:03:36.117Z,95795.00
2022-11-30T13:07:44.144Z,95788.00
2022-11-30T13:11:53.769Z,95789.00
2022-11-30T13:15:57.524Z,95792.00
2022-11-30T13:20:08.145Z,95793.00
2022-11-30T13:24:16.336Z,95786.00
2022-11-30T13:28:30.998Z,95785.00
2022-11-30T13:32:57.472Z,95775.00
2022-11-30T13:37:06.520Z,95788.00
2022-11-30T13:41:09.878Z,95798.00
2022-11-30T13:45:28.019Z,95796.00
2022-11-30T13:49:33.261Z,95801.00
2022-11-30T13:53:38.574Z,95792.00
2022-11-30T13:58:07.087Z,95790.00
2022-11-30T14:07:37.541Z,95797.00
2022-11-30T14:11:43.046Z,95799.00
2022-11-30T14:15:57.595Z,95797.00
2022-11-30T14:20:08.709Z,95793.00
2022-11-30T14:24:20.426Z,95801.00
2022-11-30T14:28:28.079Z,95805.00
2022-11-30T14:32:36.192Z,95808.00
2022-11-30T14:36:42.563Z,95799.00
2022-11-30T14:40:53.175Z,95798.00
2022-11-30T14:44:56.450Z,95805.00
2022-11-30T14:49:14.721Z,95814.00
2022-11-30T14:53:29.058Z,95816.00
2022-11-30T14:57:37.447Z,95816.00
2022-11-30T15:01:40.905Z,95814.00
2022-11-30T15:05:44.686Z,95812.00
2022-11-30T15:09:50.564Z,95818.00
2022-11-30T15:13:56.311Z,95816.00
2022-11-30T15:18:00.667Z,95815.00
2022-11-30T15:22:03.542Z,95818.00
2022-11-30T15:26:14.673Z,95817.00
2022-11-30T15:30:19.005Z,95825.00
2022-11-30T15:34:26.932Z,95822.00
2022-11-30T15:38:29.794Z,95808.00
2022-11-30T15:42:39.711Z,95818.00
2022-11-30T15:46:57.759Z,95815.00
2022-11-30T15:51:01.450Z,95825.00
2022-11-30T15:55:04.594Z,95812.00
2022-11-30T15:59:21.474Z,95827.00
2022-11-30T16:03:25.574Z,95833.00
2022-11-30T16:07:31.153Z,95832.00
2022-11-30T16:11:35.517Z,95837.00
2022-11-30T16:15:39.106Z,95830.00
2022-11-30T16:19:43.188Z,95832.00
2022-11-30T16:23:47.328Z,95830.00
2022-11-30T16:27:50.733Z,95833.00
2022-11-30T16:31:53.416Z,95837.00
2022-11-30T16:35:59.428Z,95840.00
2022-11-30T16:40:02.151Z,95837.00
2022-11-30T16:44:12.554Z,95839.00
2022-11-30T16:48:15.273Z,95839.00
2022-11-30T16:52:19.355Z,95843.00
2022-11-30T16:56:22.748Z,95839.00
2022-11-30T17:00:26.093Z,95845.00
2022-11-30T17:04:29.528Z,95837.00
2022-11-30T17:08:33.767Z,95840.00
2022-11-30T17:12:36.573Z,95841.00
2022-11-30T17:16:39.565Z,95847.00
2022-11-30T17:20:42.496Z,95846.00
2022-11-30T17:24:46.837Z,95845.00
2022-11-30T17:28:49.825Z,95846.00
2022-11-30T17:32:52.533Z,95847.00
2022-11-30T17:36:56.562Z,95852.00
2022-11-30T17:41:00.869Z,95854.00
2022-11-30T17:45:03.674Z,95850.00
2022-11-30T17:49:06.762Z,95867.00
2022-11-30T17:53:12.977Z,95856.00
2022-11-30T17:57:19.481Z,95856.00
2022-11-30T18:01:24.306Z,95862.00
2022-11-30T18:05:27.145Z,95864.00
2022-11-30T18:09:29.937Z,95862.00
2022-11-30T18:13:34.003Z,95868.00
2022-11-30T18:17:36.726Z,95868.00
2022-11-30T18:21:40.534Z,95869.00
2022-11-30T18:25:43.444Z,95874.00
2022-11-30T18:29:47.686Z,95881.00
2022-11-30T18:33:54.979Z,95879.00
2022-11-30T18:37:58.683Z,95872.00
2022-11-30T18:42:01.419Z,95880.00
2022-11-30T18:46:06.865Z,95875.00
2022-11-30T18:50:10.115Z,95888.00
2022-11-30T18:54:13.359Z,95890.00
2022-11-30T18:58:16.118Z,95893.00
2022-11-30T19:02:21.557Z,95893.00
2022-11-30T19:06:28.162Z,95897.00
2022-11-30T19:10:32.886Z,95887.00
2022-11-30T19:14:35.624Z,95893.00
2022-11-30T19:18:39.969Z,95883.00
2022-11-30T19:22:42.714Z,95891.00
2022-11-30T19:26:45.636Z,95883.00
2022-11-30T19:30:48.441Z,95889.00
2022-11-30T19:34:52.564Z,95882.00
2022-11-30T19:38:55.545Z,95881.00
2022-11-30T19:42:59.267Z,95887.00
2022-11-30T19:47:02.008Z,95894.00
2022-11-30T19:51:07.690Z,95894.00
2022-11-30T19:55:11.011Z,95898.00
2022-11-30T19:59:13.722Z,95896.00
2022-11-30T20:03:17.071Z,95891.00
2022-11-30T20:07:21.284Z,95896.00
2022-11-30T20:11:24.560Z,95897.00
2022-11-30T20:15:27.261Z,95888.00
2022-11-30T20:19:29.995Z,95906.00
2022-11-30T20:23:35.679Z,95897.00
2022-11-30T20:27:38.516Z,95894.00
2022-11-30T20:31:42.173Z,95894.00
2022-11-30T20:35:44.922Z,95902.00
2022-11-30T20:39:49.004Z,95894.00
2022-11-30T20:43:52.028Z,95899.00
2022-11-30T20:47:54.791Z,95896.00
2022-11-30T20:51:57.531Z,95900.00
2022-11-30T20:56:02.615Z,95893.00
2022-11-30T21:00:11.506Z,95894.00
2022-11-30T21:04:15.760Z,95895.00
2022-11-30T21:08:18.575Z,95900.00
2022-11-30T21:12:22.617Z,95916.00
2022-11-30T21:16:28.644Z,95913.00
2022-11-30T21:20:31.958Z,95907.00
2022-11-30T21:24:35.963Z,95906.00
2022-11-30T21:28:40.066Z,95902.00
2022-11-30T21:32:42.778Z,95914.00
2022-11-30T21:36:45.529Z,95911.00
2022-11-30T21:40:54.953Z,95913.00
2022-11-30T21:44:59.105Z,95915.00
2022-11-30T21:49:02.180Z,95911.00
2022-11-30T21:53:04.957Z,95910.00
2022-11-30T21:57:07.709Z,95916.00
2022-11-30T22:01:14.879Z,95912.00
2022-11-30T22:05:17.576Z,95908.00
2022-11-30T22:09:20.306Z,95916.00
2022-11-30T22:13:23.059Z,95913.00
2022-11-30T22:17:27.139Z,95902.00
2022-11-30T22:21:31.571Z,95914.00
2022-11-30T22:25:34.293Z,95912.00
2022-11-30T22:29:36.985Z,95895.00
2022-11-30T22:33:43.146Z,95901.00
2022-11-30T22:37:45.832Z,95899.00
2022-11-30T22:41:55.176Z,95916.00
2022-11-30T22:46:03.526Z,95908.00
2022-11-30T22:50:08.735Z,95905.00
2022-11-30T22:54:11.685Z,95906.00
2022-11-30T22:58:14.577Z,95907.00
2022-11-30T23:02:17.285Z,95905.00
2022-11-30T23:06:22.056Z,95907.00
2022-11-30T23:10:24.762Z,95899.00
2022-11-30T23:14:27.469Z,95910.00
2022-11-30T23:18:31.310Z,95909.00
2022-11-30T23:22:36.460Z,95900.00
2022-11-30T23:26:39.642Z,95902.00
2022-11-30T23:30:42.349Z,95893.00
2022-11-30T23:34:49.428Z,95894.00
2022-11-30T23:38:58.450Z,95881.00
2022-11-30T23:43:01.153Z,95886.00
2022-11-30T23:47:03.937Z,95885.00
2022-11-30T23:51:07.333Z,95878.00
2022-11-30T23:55:11.738Z,95872.00
2022-11-30T23:59:14.435Z,95873.00
